Time;durP1;ratioP1;P1;durP2;ratioP2;P2;SDS_P1;SDS_P2;PMS_P1;PMS_P2;Temp;Humidity;BMP_temperature;BMP_pressure;BME280_temperature;BME280_humidity;BME280_pressure;Samples;Min_cycle;Max_cycle;Signal;HPM_P1;HPM_P2
2023/04/02 00:00:31;;;;;;;1999.90;999.90;;;9.90;99.90;;;;;;5053372;28;20036;-74
2023/04/02 00:03:07;;;;;;;1999.90;999.90;;;10.00;99.90;;;;;;5053243;28;20009;-68
2023/04/02 00:05:51;;;;;;;1999.90;999.90;;;9.90;99.90;;;;;;5053418;28;20463;-74
2023/04/02 00:08:39;;;;;;;1999.90;999.90;;;10.00;99.90;;;;;;5053470;28;20087;-74
2023/04/02 00:11:07;;;;;;;1999.90;999.90;;;10.00;99.90;;;;;;5053421;28;20103;-74
2023/04/02 00:13:40;;;;;;;1999.90;999.90;;;10.00;99.90;;;;;;5053119;28;20017;-74
2023/04/02 00:16:10;;;;;;;1999.90;999.90;;;9.90;99.90;;;;;;5053293;28;20439;-74
2023/04/02 00:18:44;;;;;;;1999.90;999.90;;;10.00;99.90;;;;;;5048496;28;20558;-72
2023/04/02 00:21:18;;;;;;;1999.90;999.90;;;9.90;99.90;;;;;;5034127;28;20045;-74
2023/04/02 00:23:44;;;;;;;1999.90;999.90;;;9.90;99.90;;;;;;5053075;28;20029;-74
2023/04/02 00:26:42;;;;;;;1999.90;999.90;;;10.00;99.90;;;;;;5052968;28;20075;-75
2023/04/02 00:29:13;;;;;;;1999.90;999.90;;;10.00;99.90;;;;;;5053012;28;20108;-74
2023/04/02 00:31:45;;;;;;;1999.90;999.90;;;10.00;99.90;;;;;;5053376;28;20029;-74
2023/04/02 00:34:35;;;;;;;1999.90;999.90;;;10.00;99.90;;;;;;5052884;28;20107;-74
2023/04/02 00:37:01;;;;;;;1999.90;999.90;;;10.00;99.90;;;;;;5052996;28;20488;-74
2023/04/02 00:39:43;;;;;;;1999.90;999.90;;;10.00;99.90;;;;;;5052637;28;20028;-75
2023/04/02 00:42:11;;;;;;;1999.90;999.90;;;10.00;99.90;;;;;;5052935;28;20013;-75
2023/04/02 00:44:41;;;;;;;1999.90;999.90;;;10.00;99.90;;;;;;5052982;28;20025;-74
2023/04/02 00:47:35;;;;;;;1999.90;999.90;;;10.00;99.90;;;;;;5052906;28;20025;-74
2023/04/02 00:50:07;;;;;;;1999.90;999.90;;;10.00;99.90;;;;;;5051338;28;20052;-74
2023/04/02 00:52:34;;;;;;;1999.90;999.90;;;10.00;99.90;;;;;;5052904;28;20510;-74
2023/04/02 00:55:33;;;;;;;1999.90;999.90;;;10.10;99.90;;;;;;5051053;28;20029;-69
2023/04/02 00:58:00;;;;;;;1999.90;999.90;;;10.20;99.90;;;;;;5052682;28;20024;-69
2023/04/02 01:00:33;;;;;;;1999.90;999.90;;;10.30;99.90;;;;;;5052880;28;20381;-74
2023/04/02 01:03:16;;;;;;;1999.90;999.90;;;10.30;99.90;;;;;;5052490;28;20021;-74
2023/04/02 01:05:54;;;;;;;1999.90;999.90;;;10.40;99.90;;;;;;5052532;28;20028;-74
2023/04/02 01:08:20;;;;;;;1999.90;999.90;;;10.40;99.90;;;;;;5052510;28;20017;-74
2023/04/02 01:11:16;;;;;;;1999.90;999.90;;;10.40;99.90;;;;;;5052740;28;20120;-68
2023/04/02 01:13:57;;;;;;;1999.90;999.90;;;10.50;99.90;;;;;;5052784;28;20029;-74
2023/04/02 01:16:23;;;;;;;1999.90;999.90;;;10.50;99.90;;;;;;5052616;28;20029;-74
2023/04/02 01:19:07;;;;;;;1999.90;999.90;;;10.40;99.90;;;;;;5048685;28;20484;-74
2023/04/02 01:21:52;;;;;;;1999.90;999.90;;;10.40;99.90;;;;;;5052623;28;20021;-74
2023/04/02 01:24:19;;;;;;;1999.90;999.90;;;10.40;99.90;;;;;;5052443;28;20025;-74
2023/04/02 01:26:56;;;;;;;1999.90;999.90;;;10.40;99.90;;;;;;5052453;28;20017;-74
2023/04/02 01:29:38;;;;;;;1999.90;999.90;;;10.40;99.90;;;;;;5054599;28;20099;-74
2023/04/02 01:32:13;;;;;;;1999.90;999.90;;;10.50;99.90;;;;;;5056595;28;20032;-74
2023/04/02 01:34:40;;;;;;;1999.90;999.90;;;10.40;99.90;;;;;;5056318;28;20044;-74
2023/04/02 01:37:35;;;;;;;1999.90;999.90;;;10.40;99.90;;;;;;5056156;28;20502;-75
2023/04/02 01:40:46;;;;;;;1999.90;999.90;;;10.40;99.90;;;;;;5056102;28;20021;-74
2023/04/02 01:43:47;;;;;;;1999.90;999.90;;;10.40;99.90;;;;;;5054629;28;20496;-74
2023/04/02 01:46:40;;;;;;;1999.90;999.90;;;10.40;99.90;;;;;;5014312;28;20434;-68
2023/04/02 01:49:15;;;;;;;1999.90;999.90;;;10.40;99.90;;;;;;5012264;28;20049;-69
2023/04/02 01:51:45;;;;;;;1999.90;999.90;;;10.40;99.90;;;;;;5014153;28;20072;-69
2023/04/02 01:54:15;;;;;;;1999.90;999.90;;;10.40;99.90;;;;;;5014181;28;20050;-74
2023/04/02 01:56:42;;;;;;;1999.90;999.90;;;10.40;99.90;;;;;;5013539;28;20038;-74
2023/04/02 01:59:10;;;;;;;1999.90;999.90;;;10.30;99.90;;;;;;5014024;28;20026;-74
2023/04/02 02:01:47;;;;;;;1999.90;999.90;;;10.30;99.90;;;;;;5013000;28;20125;-74
2023/04/02 02:04:15;;;;;;;1999.90;999.90;;;10.30;99.90;;;;;;5013665;28;20022;-74
2023/04/02 02:06:42;;;;;;;1999.90;999.90;;;10.30;99.90;;;;;;5013858;28;20026;-74
2023/04/02 02:09:15;;;;;;;1999.90;999.90;;;10.20;99.90;;;;;;5012703;28;20432;-74
2023/04/02 02:11:41;;;;;;;1999.90;999.90;;;10.20;99.90;;;;;;5010872;28;20485;-69
2023/04/02 02:14:18;;;;;;;1999.90;999.90;;;10.20;99.90;;;;;;5013521;28;20068;-74
2023/04/02 02:16:46;;;;;;;1999.90;999.90;;;10.20;99.90;;;;;;5013784;28;20029;-74
2023/04/02 02:19:36;;;;;;;1999.90;999.90;;;10.20;99.90;;;;;;5013852;28;20065;-74
2023/04/02 02:22:24;;;;;;;1999.90;999.90;;;10.20;99.90;;;;;;5048305;28;20431;-74
2023/04/02 02:24:50;;;;;;;1999.90;999.90;;;10.20;99.90;;;;;;5055428;28;20028;-68
2023/04/02 02:27:22;;;;;;;1999.90;999.90;;;10.20;99.90;;;;;;5055381;28;20025;-74
2023/04/02 02:29:59;;;;;;;1999.90;999.90;;;10.20;99.90;;;;;;5055508;28;20032;-74
2023/04/02 02:32:29;;;;;;;1999.90;999.90;;;10.20;99.90;;;;;;5055184;28;20103;-74
2023/04/02 02:34:59;;;;;;;1999.90;999.90;;;10.20;99.90;;;;;;5055434;28;20377;-74
2023/04/02 02:37:29;;;;;;;1999.90;999.90;;;10.20;99.90;;;;;;5055041;28;20021;-74
2023/04/02 02:39:58;;;;;;;1999.90;999.90;;;10.20;99.90;;;;;;5054403;28;20037;-68
2023/04/02 02:42:32;;;;;;;1999.90;999.90;;;10.20;99.90;;;;;;5054971;28;20071;-68
2023/04/02 02:45:00;;;;;;;1999.90;999.90;;;10.20;99.90;;;;;;5055200;28;20025;-74
2023/04/02 02:47:33;;;;;;;1999.90;999.90;;;10.30;99.90;;;;;;5055275;28;20021;-74
2023/04/02 02:50:16;;;;;;;1999.90;999.90;;;10.30;99.90;;;;;;5054478;28;20057;-74
2023/04/02 02:52:46;;;;;;;1999.90;999.90;;;10.30;99.90;;;;;;5054745;28;20270;-69
2023/04/02 02:55:18;;;;;;;1999.90;999.90;;;10.30;99.90;;;;;;5054898;28;20039;-74
2023/04/02 02:57:57;;;;;;;1999.90;999.90;;;10.40;99.90;;;;;;5054192;28;20033;-68
2023/04/02 03:00:24;;;;;;;1999.90;999.90;;;10.40;99.90;;;;;;5054644;28;20068;-74
2023/04/02 03:02:53;;;;;;;1999.90;999.90;;;10.40;99.90;;;;;;5054637;28;20138;-74
2023/04/02 03:05:25;;;;;;;1999.90;999.90;;;10.40;99.90;;;;;;5054559;28;20071;-69
2023/04/02 03:07:52;;;;;;;1999.90;999.90;;;10.40;99.90;;;;;;5054714;28;20076;-69
2023/04/02 03:10:53;;;;;;;1999.90;999.90;;;10.40;99.90;;;;;;5054500;28;20017;-69
2023/04/02 03:13:34;;;;;;;1999.90;999.90;;;10.30;99.90;;;;;;5054361;28;20036;-74
2023/04/02 03:16:07;;;;;;;1999.90;999.90;;;10.30;99.90;;;;;;5054221;28;20082;-74
2023/04/02 03:18:44;;;;;;;1999.90;999.90;;;10.30;99.90;;;;;;5049510;28;20028;-74
2023/04/02 03:21:52;;;;;;;1999.90;999.90;;;10.20;99.90;;;;;;5054208;28;20115;-74
2023/04/02 03:24:40;;;;;;;1999.90;999.90;;;10.20;99.90;;;;;;5054200;28;20025;-75
2023/04/02 03:27:30;;;;;;;1999.90;999.90;;;10.30;99.90;;;;;;5054321;28;20537;-74
2023/04/02 03:30:24;;;;;;;1999.90;999.90;;;10.30;99.90;;;;;;5054193;28;20373;-69
2023/04/02 03:32:56;;;;;;;1999.90;999.90;;;10.40;99.90;;;;;;5054320;28;20424;-74
2023/04/02 03:35:45;;;;;;;1999.90;999.90;;;10.40;99.90;;;;;;5054212;28;20067;-74
2023/04/02 03:38:21;;;;;;;1999.90;999.90;;;10.40;99.90;;;;;;5053757;28;20029;-74
2023/04/02 03:41:00;;;;;;;1999.90;999.90;;;10.40;99.90;;;;;;5053818;28;20028;-74
2023/04/02 03:43:32;;;;;;;1999.90;999.90;;;10.40;99.90;;;;;;5053737;28;20017;-74
2023/04/02 03:46:10;;;;;;;1999.90;999.90;;;10.30;99.90;;;;;;5053675;28;20017;-74
2023/04/02 03:48:51;;;;;;;1999.90;999.90;;;10.20;99.90;;;;;;5053815;28;20515;-74
2023/04/02 03:51:17;;;;;;;1999.90;999.90;;;10.20;99.90;;;;;;5053151;28;20515;-74
2023/04/02 03:53:44;;;;;;;1999.90;999.90;;;10.10;99.90;;;;;;5052969;28;20021;-70
2023/04/02 03:56:22;;;;;;;1999.90;999.90;;;10.00;99.90;;;;;;5053778;28;20063;-74
2023/04/02 03:58:58;;;;;;;1999.90;999.90;;;9.90;99.90;;;;;;5051822;28;20025;-74
2023/04/02 04:01:24;;;;;;;1999.90;999.90;;;9.90;99.90;;;;;;5053440;28;20091;-69
2023/04/02 04:03:55;;;;;;;1999.90;999.90;;;9.80;99.90;;;;;;5053561;28;20033;-74
2023/04/02 04:06:27;;;;;;;1999.90;999.90;;;9.80;99.90;;;;;;5052009;28;20404;-74
2023/04/02 04:09:18;;;;;;;1999.90;999.90;;;9.70;99.90;;;;;;5033903;28;20022;-68
2023/04/02 04:11:48;;;;;;;1999.90;999.90;;;9.70;99.90;;;;;;5033409;28;20436;-74
2023/04/02 04:14:14;;;;;;;1999.90;999.90;;;9.70;99.90;;;;;;5033437;28;20519;-74
2023/04/02 04:17:12;;;;;;;1999.90;999.90;;;9.60;99.90;;;;;;5036489;28;20021;-69
2023/04/02 04:19:53;;;;;;;1999.90;999.90;;;9.50;99.90;;;;;;5048215;28;20025;-74
2023/04/02 04:22:32;;;;;;;1999.90;999.90;;;9.50;99.90;;;;;;5053260;28;20041;-74
2023/04/02 04:25:28;;;;;;;1999.90;999.90;;;9.50;99.90;;;;;;5053232;28;20020;-74
2023/04/02 04:28:20;;;;;;;1999.90;999.90;;;9.50;99.90;;;;;;5053278;28;20429;-74
2023/04/02 04:31:19;;;;;;;1999.90;999.90;;;9.50;99.90;;;;;;5053326;28;20035;-74
2023/04/02 04:33:49;;;;;;;1999.90;999.90;;;9.50;99.90;;;;;;5053214;28;20395;-74
2023/04/02 04:36:28;;;;;;;1999.90;999.90;;;9.50;99.90;;;;;;5053150;28;20021;-74
2023/04/02 04:39:04;;;;;;;1999.90;999.90;;;9.40;99.90;;;;;;5053101;28;20025;-68
2023/04/02 04:41:35;;;;;;;1999.90;999.90;;;9.40;99.90;;;;;;5052727;28;20024;-74
2023/04/02 04:44:12;;;;;;;1999.90;999.90;;;9.40;99.90;;;;;;5052719;28;20483;-74
2023/04/02 04:46:41;;;;;;;1999.90;999.90;;;9.40;99.90;;;;;;5053034;28;20045;-74
2023/04/02 04:49:21;;;;;;;1999.90;999.90;;;9.40;99.90;;;;;;5052741;28;20132;-69
2023/04/02 04:52:13;;;;;;;1999.90;999.90;;;9.40;99.90;;;;;;5052605;28;20107;-69
2023/04/02 04:54:39;;;;;;;1999.90;999.90;;;9.50;99.90;;;;;;5052833;28;20024;-74
2023/04/02 04:57:17;;;;;;;1999.90;999.90;;;9.50;99.90;;;;;;5052566;28;20021;-74
2023/04/02 04:59:54;;;;;;;1999.90;999.90;;;9.50;99.90;;;;;;5051884;28;20441;-74
2023/04/02 05:02:28;;;;;;;1999.90;999.90;;;9.60;99.90;;;;;;5052458;28;20067;-69
2023/04/02 05:04:53;;;;;;;1999.90;999.90;;;9.60;99.90;;;;;;5058597;28;20468;-69
2023/04/02 05:07:26;;;;;;;1999.90;999.90;;;9.70;99.90;;;;;;5058870;28;20031;-74
2023/04/02 05:10:11;;;;;;;1999.90;999.90;;;9.70;99.90;;;;;;5059098;28;20472;-69
2023/04/02 05:12:50;;;;;;;1999.90;999.90;;;9.70;99.90;;;;;;5059278;28;20076;-74
2023/04/02 05:15:16;;;;;;;1999.90;999.90;;;9.70;99.90;;;;;;5057916;28;20028;-74
2023/04/02 05:17:54;;;;;;;1999.90;999.90;;;9.80;99.90;;;;;;5059180;28;20047;-74
2023/04/02 05:20:26;;;;;;;1999.90;999.90;;;9.70;99.90;;;;;;5055158;28;20031;-74
2023/04/02 05:22:54;;;;;;;1999.90;999.90;;;9.80;99.90;;;;;;5058944;28;20027;-74
2023/04/02 05:25:30;;;;;;;1999.90;999.90;;;9.80;99.90;;;;;;5058991;28;20025;-74
2023/04/02 05:28:20;;;;;;;1999.90;999.90;;;9.70;99.90;;;;;;5059031;28;20075;-68
2023/04/02 05:30:54;;;;;;;1999.90;999.90;;;9.80;99.90;;;;;;5058982;28;20025;-68
2023/04/02 05:33:28;;;;;;;1999.90;999.90;;;9.80;99.90;;;;;;5059271;28;20028;-74
2023/04/02 05:36:02;;;;;;;1999.90;999.90;;;9.80;99.90;;;;;;5052074;28;20432;-68
2023/04/02 05:38:32;;;;;;;1999.90;999.90;;;9.80;99.90;;;;;;5039053;28;20056;-74
2023/04/02 05:41:29;;;;;;;1999.90;999.90;;;9.80;99.90;;;;;;5039245;28;20113;-68
2023/04/02 05:44:18;;;;;;;1999.90;999.90;;;9.70;99.90;;;;;;5038909;28;20025;-69
2023/04/02 05:46:53;;;;;;;1999.90;999.90;;;9.70;99.90;;;;;;5049693;28;20056;-74
2023/04/02 05:49:43;;;;;;;1999.90;999.90;;;9.70;99.90;;;;;;5058618;28;20052;-73
2023/04/02 05:52:16;;;;;;;1999.90;999.90;;;9.70;99.90;;;;;;5059121;28;20035;-74
2023/04/02 05:55:03;;;;;;;1999.90;999.90;;;9.70;99.90;;;;;;5058950;28;20013;-74
2023/04/02 05:57:37;;;;;;;1999.90;999.90;;;9.70;99.90;;;;;;5058776;28;20025;-74
2023/04/02 06:00:08;;;;;;;1999.90;999.90;;;9.60;99.90;;;;;;5058183;28;20029;-74
2023/04/02 06:02:54;;;;;;;1999.90;999.90;;;9.60;99.90;;;;;;5058736;28;20024;-74
2023/04/02 06:05:25;;;;;;;1999.90;999.90;;;9.60;99.90;;;;;;5058916;28;20041;-74
2023/04/02 06:07:57;;;;;;;1999.90;999.90;;;9.50;99.90;;;;;;5058390;28;20391;-69
2023/04/02 06:10:32;;;;;;;1999.90;999.90;;;9.50;99.90;;;;;;5058754;28;20476;-74
2023/04/02 06:13:05;;;;;;;1999.90;999.90;;;9.50;99.90;;;;;;5059001;28;20036;-74
2023/04/02 06:15:32;;;;;;;;;;;9.50;99.90;;;;;;5056454;28;20029;-74
2023/04/02 06:18:00;;;;;;;1999.90;999.90;;;9.50;99.90;;;;;;5055290;28;19905;-73
2023/04/02 06:20:26;;;;;;;1999.90;999.90;;;9.50;99.90;;;;;;5051694;28;20033;-69
2023/04/02 06:23:06;;;;;;;1999.90;999.90;;;9.50;99.90;;;;;;5054475;28;20022;-69
2023/04/02 06:26:21;;;;;;;1999.90;999.90;;;9.40;99.90;;;;;;5055508;28;20021;-74
2023/04/02 06:28:54;;;;;;;1999.90;999.90;;;9.40;99.90;;;;;;5050449;28;20037;-74
2023/04/02 06:31:30;;;;;;;1999.90;999.90;;;9.40;99.90;;;;;;5055400;28;20091;-74
2023/04/02 06:33:55;;;;;;;1999.90;999.90;;;9.40;99.90;;;;;;5055155;28;20017;-69
2023/04/02 06:36:24;;;;;;;1999.90;999.90;;;9.40;99.90;;;;;;5055299;28;20488;-74
2023/04/02 06:38:52;;;;;;;1999.90;999.90;;;9.40;99.90;;;;;;5055075;28;20041;-69
2023/04/02 06:41:21;;;;;;;1999.90;999.90;;;9.40;99.90;;;;;;5055036;28;20451;-69
2023/04/02 06:43:59;;;;;;;1999.90;999.90;;;9.50;99.90;;;;;;5055078;28;20071;-68
2023/04/02 06:46:41;;;;;;;1999.90;999.90;;;9.60;99.90;;;;;;5054908;28;20025;-69
2023/04/02 06:49:33;;;;;;;1999.90;999.90;;;9.60;99.90;;;;;;5054693;28;20424;-68
2023/04/02 06:52:01;;;;;;;1999.90;999.90;;;9.70;99.90;;;;;;5054805;28;20085;-74
2023/04/02 06:54:26;;;;;;;1999.90;999.90;;;9.70;99.90;;;;;;5054988;28;20399;-74
2023/04/02 06:56:55;;;;;;;1999.90;999.90;;;9.80;99.90;;;;;;5055182;28;20032;-69
2023/04/02 06:59:21;;;;;;;1999.90;999.90;;;9.80;99.90;;;;;;5052663;28;20029;-69
2023/04/02 07:02:17;;;;;;;1999.90;999.90;;;9.90;99.90;;;;;;5054789;28;20439;-68
2023/04/02 07:04:42;;;;;;;1999.90;999.90;;;10.00;99.90;;;;;;5054919;28;20024;-74
2023/04/02 07:07:08;;;;;;;1999.90;999.90;;;10.00;99.90;;;;;;5054802;28;20021;-74
2023/04/02 07:09:34;;;;;;;1999.90;999.90;;;10.10;99.90;;;;;;5054444;28;20029;-74
2023/04/02 07:11:59;;;;;;;1999.90;999.90;;;10.20;99.90;;;;;;5054314;28;20064;-68
2023/04/02 07:14:25;;;;;;;1999.90;999.90;;;10.30;99.90;;;;;;5054703;28;20021;-74
2023/04/02 07:16:51;;;;;;;1999.90;999.90;;;10.30;99.90;;;;;;5054489;28;20028;-69
2023/04/02 07:19:21;;;;;;;1999.90;999.90;;;10.50;99.90;;;;;;5051063;28;20044;-74
2023/04/02 07:21:47;;;;;;;1999.90;999.90;;;10.60;99.90;;;;;;5052572;28;20021;-68
2023/04/02 07:24:13;;;;;;;1999.90;999.90;;;10.70;99.90;;;;;;5054284;28;20032;-74
2023/04/02 07:26:39;;;;;;;1999.90;999.90;;;10.70;99.90;;;;;;5054130;28;20024;-74
2023/04/02 07:29:13;;;;;;;1999.90;999.90;;;10.80;99.90;;;;;;5054194;28;20499;-69
2023/04/02 07:31:39;;;;;;;1999.90;999.90;;;10.80;99.90;;;;;;5054077;28;20427;-74
2023/04/02 07:34:06;;;;;;;1999.90;999.90;;;10.90;99.90;;;;;;5054095;28;20021;-74
2023/04/02 07:36:32;;;;;;;1999.90;999.90;;;10.90;99.90;;;;;;5054001;28;20036;-74
2023/04/02 07:38:58;;;;;;;1999.90;999.90;;;10.90;99.90;;;;;;5054078;28;20025;-74
2023/04/02 07:41:25;;;;;;;1999.90;999.90;;;10.90;99.90;;;;;;5053652;28;20104;-74
2023/04/02 07:43:50;;;;;;;1999.90;999.90;;;11.00;99.90;;;;;;5054038;28;20476;-74
2023/04/02 07:46:18;;;;;;;1999.90;999.90;;;11.10;99.90;;;;;;5054211;28;20040;-74
2023/04/02 07:48:44;;;;;;;1999.90;999.90;;;11.30;99.90;;;;;;5053487;28;20049;-75
2023/04/02 07:51:18;;;;;;;1999.90;999.90;;;11.60;99.90;;;;;;5053810;28;20117;-74
2023/04/02 07:53:44;;;;;;;1999.90;999.90;;;12.70;99.90;;;;;;5053592;28;20025;-74
2023/04/02 07:56:13;;;;;;;1999.90;999.90;;;15.00;99.90;;;;;;5054259;28;20438;-75
2023/04/02 07:58:39;;;;;;;1999.90;999.90;;;16.70;99.90;;;;;;5053718;28;20099;-75
2023/04/02 08:01:36;;;;;;;1999.90;999.90;;;17.80;99.90;;;;;;5052986;28;20029;-69
2023/04/02 08:04:04;;;;;;;1999.90;999.90;;;18.40;99.90;;;;;;5039415;28;20037;-70
2023/04/02 08:06:30;;;;;;;1999.90;999.90;;;19.20;99.90;;;;;;5033543;28;20030;-69
2023/04/02 08:08:57;;;;;;;1999.90;999.90;;;19.40;99.90;;;;;;5053622;28;20021;-75
2023/04/02 08:11:23;;;;;;;1999.90;999.90;;;17.10;99.90;;;;;;5053551;28;20121;-70
2023/04/02 08:13:48;;;;;;;1999.90;999.90;;;17.50;99.90;;;;;;5053236;28;20104;-75
2023/04/02 08:16:14;;;;;;;1999.90;999.90;;;17.70;99.90;;;;;;5052007;28;20032;-75
2023/04/02 08:18:40;;;;;;;1999.90;999.90;;;18.60;99.90;;;;;;5051841;28;20131;-75
2023/04/02 08:21:08;;;;;;;1999.90;999.90;;;16.50;99.90;;;;;;5048525;28;20080;-74
2023/04/02 08:23:34;;;;;;;1999.90;999.90;;;15.20;99.90;;;;;;5051827;28;20025;-74
2023/04/02 08:26:00;;;;;;;1999.90;999.90;;;14.10;99.90;;;;;;5053004;28;20013;-74
2023/04/02 08:28:26;;;;;;;1999.90;999.90;;;13.30;99.90;;;;;;5053348;28;20036;-74
2023/04/02 08:30:52;;;;;;;1999.90;999.90;;;12.70;99.90;;;;;;5052992;28;20143;-69
2023/04/02 08:33:18;;;;;;;1999.90;999.90;;;12.40;99.90;;;;;;5053389;28;20075;-69
2023/04/02 08:35:45;;;;;;;1999.90;999.90;;;12.20;99.90;;;;;;5052770;28;20029;-69
2023/04/02 08:38:16;;;;;;;1999.90;999.90;;;12.40;99.90;;;;;;5052366;28;20045;-74
2023/04/02 08:40:45;;;;;;;1999.90;999.90;;;12.60;99.90;;;;;;5052948;28;20032;-74
2023/04/02 08:43:29;;;;;;;1999.90;999.90;;;12.70;99.90;;;;;;5052757;28;20021;-74
2023/04/02 08:46:17;;;;;;;1999.90;999.90;;;12.80;99.90;;;;;;5052776;28;20044;-69
2023/04/02 08:48:49;;;;;;;1999.90;999.90;;;13.40;99.90;;;;;;5052718;28;20575;-75
2023/04/02 08:51:23;;;;;;;1999.90;999.90;;;14.30;99.90;;;;;;5052811;28;20025;-75
2023/04/02 08:53:50;;;;;;;1999.90;999.90;;;14.50;99.90;;;;;;5052740;28;20020;-69
2023/04/02 08:56:19;;;;;;;1999.90;999.90;;;14.90;99.90;;;;;;5052802;28;20029;-69
2023/04/02 08:58:49;;;;;;;1999.90;999.90;;;15.50;99.90;;;;;;5052556;28;20480;-70
2023/04/02 09:01:25;;;;;;;1999.90;999.90;;;16.50;99.90;;;;;;5051922;28;20032;-70
2023/04/02 09:03:54;;;;;;;1999.90;999.90;;;17.00;99.90;;;;;;5032617;28;20029;-75
2023/04/02 09:06:21;;;;;;;1999.90;999.90;;;16.30;99.90;;;;;;5032829;28;20057;-75
2023/04/02 09:08:50;;;;;;;1999.90;999.90;;;16.30;99.90;;;;;;5051677;28;20028;-70
2023/04/02 09:11:37;;;;;;;1999.90;999.90;;;16.20;99.90;;;;;;5052561;28;20052;-70
2023/04/02 09:14:10;;;;;;;1999.90;999.90;;;16.30;99.90;;;;;;5052571;28;20025;-70
2023/04/02 09:16:52;;;;;;;1999.90;999.90;;;16.50;99.90;;;;;;5052449;28;20029;-75
2023/04/02 09:19:32;;;;;;;1999.90;999.90;;;16.80;99.90;;;;;;5047770;28;20055;-75
2023/04/02 09:22:18;;;;;;;1999.90;999.90;;;17.90;99.90;;;;;;5052193;28;20022;-70
2023/04/02 09:24:49;;;;;;;1999.90;999.90;;;18.60;99.90;;;;;;5052393;28;20104;-75
2023/04/02 09:27:21;;;;;;;1999.90;999.90;;;19.90;99.90;;;;;;5052414;28;20017;-75
2023/04/02 09:29:50;;;;;;;1999.90;999.90;;;19.10;99.90;;;;;;5052514;28;20078;-75
2023/04/02 09:32:47;;;;;;;1999.90;999.90;;;18.20;99.90;;;;;;5052350;28;20032;-75
2023/04/02 09:35:22;;;;;;;1999.90;999.90;;;18.50;99.90;;;;;;5052604;28;20060;-74
2023/04/02 09:38:07;;;;;;;1999.90;999.90;;;17.10;99.90;;;;;;5052232;28;20027;-74
2023/04/02 09:40:47;;;;;;;1999.90;999.90;;;15.90;99.90;;;;;;5052270;28;20029;-75
2023/04/02 09:43:23;;;;;;;1999.90;999.90;;;15.60;99.90;;;;;;5052271;28;20028;-74
2023/04/02 09:46:11;;;;;;;1999.90;999.90;;;15.10;99.90;;;;;;5052365;28;20029;-74
2023/04/02 09:48:45;;;;;;;1999.90;999.90;;;14.90;99.90;;;;;;5049297;28;20401;-74
2023/04/02 09:51:20;;;;;;;1999.90;999.90;;;14.70;99.90;;;;;;5054240;28;20032;-74
2023/04/02 09:54:01;;;;;;;1999.90;999.90;;;14.80;99.90;;;;;;5055903;28;20395;-74
2023/04/02 09:56:26;;;;;;;1999.90;999.90;;;15.00;99.90;;;;;;5056090;28;20478;-74
2023/04/02 09:59:24;;;;;;;1999.90;999.90;;;14.90;99.90;;;;;;5055273;28;20117;-74
2023/04/02 10:01:53;;;;;;;1999.90;999.90;;;14.30;99.90;;;;;;5042795;28;20060;-71
2023/04/02 10:04:43;;;;;;;1999.90;999.90;;;14.20;99.90;;;;;;5055635;28;20488;-74
2023/04/02 10:07:28;;;;;;;1999.90;999.90;;;14.90;99.90;;;;;;5055713;28;20075;-74
2023/04/02 10:09:58;;;;;;;1999.90;999.90;;;15.10;99.90;;;;;;5055474;28;20044;-75
2023/04/02 10:12:28;;;;;;;1999.90;999.90;;;16.00;99.90;;;;;;5056020;28;20387;-75
2023/04/02 10:14:56;;;;;;;1999.90;999.90;;;16.40;99.90;;;;;;5055459;28;20033;-69
2023/04/02 10:17:25;;;;;;;1999.90;999.90;;;16.90;99.90;;;;;;5055004;28;20029;-75
2023/04/02 10:20:18;;;;;;;1999.90;999.90;;;16.90;99.90;;;;;;5050144;28;20044;-70
2023/04/02 10:22:45;;;;;;;1999.90;999.90;;;16.30;99.90;;;;;;5049551;28;20033;-75
2023/04/02 10:25:20;;;;;;;1999.90;999.90;;;16.70;99.90;;;;;;5055402;28;20028;-75
2023/04/02 10:27:45;;;;;;;1999.90;999.90;;;17.70;99.90;;;;;;5055247;28;20052;-75
2023/04/02 10:30:32;;;;;;;1999.90;999.90;;;17.90;99.90;;;;;;5055586;28;20071;-74
2023/04/02 10:33:26;;;;;;;1999.90;999.90;;;17.10;99.90;;;;;;5055372;28;20094;-75
2023/04/02 10:36:20;;;;;;;1999.90;999.90;;;15.90;99.90;;;;;;5055125;28;20403;-74
2023/04/02 10:38:50;;;;;;;1999.90;999.90;;;15.80;99.90;;;;;;5055208;28;20410;-74
2023/04/02 10:41:15;;;;;;;1999.90;999.90;;;15.60;99.90;;;;;;5055012;28;20365;-74
2023/04/02 10:44:06;;;;;;;1999.90;999.90;;;16.30;99.90;;;;;;5053726;28;20028;-74
2023/04/02 10:46:53;;;;;;;1999.90;999.90;;;16.10;99.90;;;;;;5055033;28;20341;-74
2023/04/02 10:49:37;;;;;;;1999.90;999.90;;;15.80;99.90;;;;;;5054928;28;20049;-74
2023/04/02 10:52:08;;;;;;;1999.90;999.90;;;15.60;99.90;;;;;;5054837;28;20112;-69
2023/04/02 10:54:51;;;;;;;1999.90;999.90;;;15.70;99.90;;;;;;5054775;28;20499;-74
2023/04/02 10:57:25;;;;;;;1999.90;999.90;;;15.90;99.90;;;;;;5054720;28;20500;-75
2023/04/02 11:00:15;;;;;;;1999.90;999.90;;;16.50;99.90;;;;;;5054555;28;20036;-75
2023/04/02 11:02:57;;;;;;;1999.90;999.90;;;17.20;99.90;;;;;;5053470;28;20014;-75
2023/04/02 11:05:46;;;;;;;1999.90;999.90;;;16.60;99.90;;;;;;5054765;28;20032;-74
2023/04/02 11:08:32;;;;;;;1999.90;999.90;;;16.30;99.90;;;;;;5054544;28;20100;-74
2023/04/02 11:11:06;;;;;;;1999.90;999.90;;;17.10;99.90;;;;;;5054783;28;20029;-75
2023/04/02 11:13:51;;;;;;;1999.90;999.90;;;17.20;99.90;;;;;;5054478;28;20021;-74
2023/04/02 11:16:17;;;;;;;1999.90;999.90;;;16.90;99.90;;;;;;5054328;28;20492;-69
2023/04/02 11:19:20;;;;;;;1999.90;999.90;;;16.30;99.90;;;;;;5053233;28;20072;-74
2023/04/02 11:22:21;;;;;;;1999.90;999.90;;;16.10;99.90;;;;;;5051724;28;20016;-74
2023/04/02 11:24:54;;;;;;;1999.90;999.90;;;15.70;99.90;;;;;;5054476;28;20033;-74
2023/04/02 11:27:25;;;;;;;1999.90;999.90;;;15.30;99.90;;;;;;5054066;28;20526;-74
2023/04/02 11:29:59;;;;;;;1999.90;999.90;;;14.90;99.90;;;;;;5054158;28;20467;-74
2023/04/02 11:32:32;;;;;;;1999.90;999.90;;;14.60;99.90;;;;;;5054478;28;20025;-69
2023/04/02 11:35:00;;;;;;;1999.90;999.90;;;14.50;99.90;;;;;;5054337;28;20483;-69
2023/04/02 11:37:29;;;;;;;1999.90;999.90;;;14.20;99.90;;;;;;5054175;28;20048;-74
2023/04/02 11:39:58;;;;;;;1999.90;999.90;;;14.10;99.90;;;;;;5053815;28;20078;-74
2023/04/02 11:42:33;;;;;;;1999.90;999.90;;;13.90;99.90;;;;;;5053642;28;20458;-74
2023/04/02 11:47:58;;;;;;;1999.90;999.90;;;13.90;99.90;;;;;;5053864;28;20036;-69
2023/04/02 11:50:28;;;;;;;1999.90;999.90;;;13.60;99.90;;;;;;5054170;28;20563;-74
2023/04/02 11:52:55;;;;;;;1999.90;999.90;;;13.30;99.90;;;;;;5053970;28;20029;-74
2023/04/02 11:55:26;;;;;;;1999.90;999.90;;;13.00;99.90;;;;;;5053599;28;20388;-74
2023/04/02 11:58:01;;;;;;;1999.90;999.90;;;12.90;99.90;;;;;;5053475;28;20033;-73
2023/04/02 12:01:06;;;;;;;1999.90;999.90;;;12.80;99.90;;;;;;5053671;28;20379;-73
2023/04/02 12:03:58;;;;;;;1999.90;999.90;;;12.80;99.90;;;;;;5053447;28;20072;-74
2023/04/02 12:07:05;;;;;;;1999.90;999.90;;;12.60;99.90;;;;;;5034226;28;20041;-74
2023/04/02 12:09:44;;;;;;;1999.90;999.90;;;12.60;99.90;;;;;;5033144;28;20500;-74
2023/04/02 12:12:45;;;;;;;1999.90;999.90;;;12.60;99.90;;;;;;5033760;28;20104;-69
2023/04/02 12:15:43;;;;;;;1999.90;999.90;;;12.70;99.90;;;;;;5011605;28;20076;-74
2023/04/02 12:18:20;;;;;;;1999.90;999.90;;;12.80;99.90;;;;;;5011041;28;20072;-74
2023/04/02 12:20:52;;;;;;;1999.90;999.90;;;12.90;99.90;;;;;;5008222;28;20108;-74
2023/04/02 12:23:28;;;;;;;1999.90;999.90;;;13.30;99.90;;;;;;5011215;28;20042;-74
2023/04/02 12:26:21;;;;;;;1999.90;999.90;;;13.50;99.90;;;;;;5011826;28;20400;-70
2023/04/02 12:28:47;;;;;;;1999.90;999.90;;;13.80;99.90;;;;;;5004316;28;20628;-69
2023/04/02 12:31:17;;;;;;;1999.90;999.90;;;14.40;99.90;;;;;;5011790;28;20030;-75
2023/04/02 12:33:43;;;;;;;1999.90;999.90;;;14.50;99.90;;;;;;5011236;28;20550;-74
2023/04/02 12:36:14;;;;;;;1999.90;999.90;;;14.60;99.90;;;;;;5011411;28;20038;-69
2023/04/02 12:38:55;;;;;;;1999.90;999.90;;;14.80;99.90;;;;;;5011345;28;20029;-74
2023/04/02 12:41:29;;;;;;;1999.90;999.90;;;15.20;99.90;;;;;;5010989;28;20025;-76
2023/04/02 12:44:04;;;;;;;1999.90;999.90;;;15.30;99.90;;;;;;5011162;28;20106;-75
2023/04/02 12:46:32;;;;;;;1999.90;999.90;;;14.90;99.90;;;;;;5010925;28;20026;-75